This is the latest recevied weather packets stored in our database for station/object WC0AA-WX. If no packets are shown the sender has not sent any weather packets the latest 10 day(s).
| Time | Temp. | Humidity | Pressure | Rain* | Wind** | Luminosity | Snow |
|---|---|---|---|---|---|---|---|
| 1777444713 | 5.56° C | 94% | 1019.6 hPa | 0 mm | - | - | - |
| 1777444112 | 5.56° C | 93% | 1019.6 hPa | 0 mm | - | - | - |
| 1777443511 | 5.56° C | 93% | 1019.7 hPa | 0 mm | - | - | - |
| 1777442910 | 5.56° C | 92% | 1019.4 hPa | 0 mm | - | - | - |
| 1777440506 | 6.11° C | 90% | 1019.2 hPa | 0 mm | - | - | - |
| 1777439905 | 6.11° C | 89% | 1019.1 hPa | 0 mm | - | - | - |
| 1777439304 | 6.11° C | 88% | 1019.3 hPa | 0 mm | - | - | - |
| 1777438703 | 6.67° C | 87% | 1019.4 hPa | 0 mm | - | - | - |
| 1777437501 | 7.22° C | 86% | 1019.3 hPa | 0 mm | - | - | - |
| 1777436900 | 7.22° C | 86% | 1019.1 hPa | 0 mm | - | - | - |
| 1777436298 | 7.22° C | 85% | 1019.1 hPa | 0 mm | - | - | - |
| 1777435698 | 7.78° C | 84% | 1019.1 hPa | 0 mm | - | - | - |
| 1777433895 | 8.33° C | 82% | 1019.3 hPa | 0 mm | - | - | - |
| 1777433295 | 8.33° C | 83% | 1019.7 hPa | 0 mm | - | - | - |
| 1777432093 | 8.33° C | 84% | 1019.4 hPa | 0 mm | - | - | - |
| 1777430290 | 8.89° C | 86% | 1019 hPa | 0 mm | - | - | - |
| 1777429689 | 8.89° C | 86% | 1019.2 hPa | 0 mm | - | - | - |
| 1777428487 | 8.89° C | 86% | 1018.6 hPa | 0 mm | - | - | - |
| 1777426684 | 8.89° C | 84% | 1018.1 hPa | 0 mm | - | - | - |
| 1777426083 | 9.44° C | 83% | 1017.9 hPa | 0 mm | - | - | - |
| 1777425483 | 9.44° C | 82% | 1017.9 hPa | 0 mm | - | - | - |
| 1777421276 | 10° C | 74% | 1016.8 hPa | 0 mm | - | - | - |
| 1777420075 | 10.56° C | 73% | 1016.8 hPa | 0 mm | - | - | - |
| 1777419474 | 10.56° C | 70% | 1016.7 hPa | 0 mm | - | - | - |
| 1777418873 | 10.56° C | 71% | 1016.8 hPa | 0 mm | - | - | - |
* Rain latest hour (hover to see other rain measurements)
** Current wind speed in m/s (hover to see current wind gust speed)